Time;durP1;ratioP1;P1;durP2;ratioP2;P2;SDS_P1;SDS_P2;PMS_P1;PMS_P2;Temp;Humidity;BMP_temperature;BMP_pressure;BME280_temperature;BME280_humidity;BME280_pressure;Samples;Min_cycle;Max_cycle;Signal;HPM_P1;HPM_P2
2022/01/06 00:01:17;;;;;;;28.67;7.68;;;;;;;;;;5071408;28;20038;-58
2022/01/06 00:03:43;;;;;;;33.75;10.85;;;;;;;;;;5051000;28;20448;-55
2022/01/06 00:06:09;;;;;;;32.63;8.60;;;;;;;;;;5051225;28;20370;-58
2022/01/06 00:08:36;;;;;;;22.50;6.85;;;;;;;;;;5050588;28;20625;-58
2022/01/06 00:11:02;;;;;;;23.25;8.25;;;;;;;;;;5049592;28;20044;-58
2022/01/06 00:13:45;;;;;;;29.13;8.00;;;;;;;;;;5051360;28;20126;-58
2022/01/06 00:16:27;;;;;;;29.85;7.47;;;;;;;;;;5050695;28;20040;-58
2022/01/06 00:24:17;;;;;;;33.13;7.20;;;;;;;;;;5069462;28;20044;-58
2022/01/06 00:26:42;;;;;;;27.05;7.88;;;;;;;;;;5070548;28;20048;-58
2022/01/06 00:29:07;;;;;;;24.08;5.70;;;;;;;;;;5069355;28;20040;-58
2022/01/06 00:31:33;;;;;;;17.43;6.30;;;;;;;;;;5064256;28;20054;-58
2022/01/06 00:33:58;;;;;;;27.88;8.20;;;;;;;;;;5049438;28;20445;-58
2022/01/06 00:36:23;;;;;;;28.83;8.55;;;;;;;;;;5050698;28;20020;-58
2022/01/06 00:38:49;;;;;;;21.65;8.88;;;;;;;;;;5049085;28;20100;-58
2022/01/06 00:41:14;;;;;;;30.40;6.32;;;;;;;;;;5051039;28;20056;-58
2022/01/06 00:43:39;;;;;;;35.33;8.02;;;;;;;;;;5050045;28;20107;-58
2022/01/06 00:46:04;;;;;;;27.03;8.30;;;;;;;;;;5049139;28;20120;-58
2022/01/06 00:48:29;;;;;;;29.58;8.40;;;;;;;;;;5050480;28;20020;-59
2022/01/06 00:50:54;;;;;;;27.33;7.28;;;;;;;;;;5048907;28;20567;-59
2022/01/06 00:53:20;;;;;;;32.15;9.85;;;;;;;;;;5050641;28;20036;-58
2022/01/06 00:55:45;;;;;;;23.60;7.97;;;;;;;;;;5048796;28;20041;-58
2022/01/06 00:58:10;;;;;;;22.37;5.90;;;;;;;;;;5050445;28;20115;-58
2022/01/06 01:00:40;;;;;;;18.23;7.10;;;;;;;;;;5048829;28;20443;-58
2022/01/06 01:03:12;;;;;;;62.42;9.50;;;;;;;;;;5069084;28;20028;-58
2022/01/06 01:05:38;;;;;;;38.55;8.18;;;;;;;;;;5068409;28;20025;-58
2022/01/06 01:08:03;;;;;;;31.35;6.40;;;;;;;;;;5070486;28;20313;-58
2022/01/06 01:10:29;;;;;;;19.50;6.93;;;;;;;;;;5068767;28;20115;-58
2022/01/06 01:12:54;;;;;;;24.00;5.68;;;;;;;;;;5070208;28;20124;-58
2022/01/06 01:15:20;;;;;;;39.10;9.35;;;;;;;;;;5069037;28;20028;-58
2022/01/06 01:17:47;;;;;;;26.23;5.43;;;;;;;;;;5069125;28;20409;-58
2022/01/06 01:20:13;;;;;;;31.85;9.68;;;;;;;;;;5068508;28;20061;-59
2022/01/06 01:22:38;;;;;;;23.67;5.57;;;;;;;;;;5073449;28;20035;-58
2022/01/06 01:25:03;;;;;;;29.30;5.63;;;;;;;;;;5072886;28;20032;-58
2022/01/06 01:27:34;;;;;;;23.80;7.63;;;;;;;;;;5074151;28;20024;-59
2022/01/06 01:30:04;;;;;;;24.73;6.07;;;;;;;;;;5072885;28;20546;-58
2022/01/06 01:32:34;;;;;;;29.45;5.72;;;;;;;;;;5061050;28;20100;-58
2022/01/06 01:35:01;;;;;;;34.17;6.30;;;;;;;;;;5052495;28;20183;-58
2022/01/06 01:37:27;;;;;;;34.45;9.55;;;;;;;;;;5054454;28;20017;-58
2022/01/06 01:39:52;;;;;;;26.88;7.05;;;;;;;;;;5052720;28;20040;-58
2022/01/06 01:42:17;;;;;;;22.17;6.90;;;;;;;;;;5054074;28;20035;-58
2022/01/06 01:44:44;;;;;;;25.03;7.43;;;;;;;;;;5052044;28;20504;-57
2022/01/06 01:47:14;;;;;;;20.80;6.63;;;;;;;;;;5069542;28;20048;-58
2022/01/06 01:49:55;;;;;;;29.33;5.90;;;;;;;;;;5052342;28;20068;-58
2022/01/06 01:52:20;;;;;;;19.52;6.75;;;;;;;;;;5054172;28;20174;-57
2022/01/06 01:54:46;;;;;;;28.57;8.13;;;;;;;;;;5052265;28;20457;-57
2022/01/06 01:57:11;;;;;;;34.15;5.60;;;;;;;;;;5053740;28;20036;-58
2022/01/06 01:59:36;;;;;;;27.15;8.23;;;;;;;;;;5051993;28;20056;-58
2022/01/06 02:02:01;;;;;;;32.30;8.33;;;;;;;;;;5065482;28;20020;-57
2022/01/06 02:04:27;;;;;;;28.02;7.40;;;;;;;;;;5072228;28;20495;-57
2022/01/06 02:06:52;;;;;;;30.20;8.13;;;;;;;;;;5072858;28;20120;-58
2022/01/06 02:09:17;;;;;;;39.63;8.18;;;;;;;;;;5072015;28;20442;-58
2022/01/06 02:11:42;;;;;;;31.25;5.82;;;;;;;;;;5073515;28;20028;-58
2022/01/06 02:14:07;;;;;;;12.93;5.13;;;;;;;;;;5072077;28;20029;-58
2022/01/06 02:16:33;;;;;;;33.60;6.50;;;;;;;;;;5064310;28;20025;-59
2022/01/06 02:18:58;;;;;;;33.58;8.98;;;;;;;;;;5070981;28;20538;-58
2022/01/06 02:21:23;;;;;;;36.85;7.57;;;;;;;;;;5071782;28;20020;-58
2022/01/06 02:23:49;;;;;;;28.08;5.47;;;;;;;;;;5070228;28;20026;-58
2022/01/06 02:26:14;;;;;;;28.42;7.32;;;;;;;;;;5072122;28;20019;-58
2022/01/06 02:28:42;;;;;;;42.17;9.70;;;;;;;;;;5070242;28;20100;-58
2022/01/06 02:31:07;;;;;;;17.50;4.85;;;;;;;;;;5067645;28;20439;-58
2022/01/06 02:33:33;;;;;;;20.13;6.13;;;;;;;;;;5051543;28;20134;-58
2022/01/06 02:35:58;;;;;;;29.02;7.05;;;;;;;;;;5051293;28;20048;-59
2022/01/06 02:38:24;;;;;;;20.63;7.55;;;;;;;;;;5051912;28;20048;-59
2022/01/06 02:40:49;;;;;;;24.67;7.70;;;;;;;;;;5050134;28;20071;-59
2022/01/06 02:43:17;;;;;;;17.67;7.05;;;;;;;;;;5051330;28;20017;-59
2022/01/06 02:45:42;;;;;;;15.48;5.47;;;;;;;;;;5049989;28;20037;-59
2022/01/06 02:48:10;;;;;;;24.60;6.82;;;;;;;;;;5051742;28;20032;-59
2022/01/06 02:50:37;;;;;;;22.65;4.55;;;;;;;;;;5049749;28;20119;-59
2022/01/06 02:53:03;;;;;;;30.05;7.43;;;;;;;;;;5051587;28;20025;-59
2022/01/06 02:55:28;;;;;;;23.90;7.70;;;;;;;;;;5049924;28;20029;-59
2022/01/06 02:57:53;;;;;;;28.30;9.52;;;;;;;;;;5051311;28;20484;-59
2022/01/06 03:00:18;;;;;;;16.90;5.97;;;;;;;;;;5049957;28;20573;-59
2022/01/06 03:02:46;;;;;;;23.92;6.75;;;;;;;;;;5070571;28;20021;-59
2022/01/06 03:05:12;;;;;;;25.33;6.18;;;;;;;;;;5069562;28;20555;-58
2022/01/06 03:07:37;;;;;;;29.73;8.95;;;;;;;;;;5071112;28;20103;-58
2022/01/06 03:10:05;;;;;;;23.05;7.03;;;;;;;;;;5070092;28;20047;-58
2022/01/06 03:12:39;;;;;;;24.77;7.97;;;;;;;;;;5071164;28;20020;-58
2022/01/06 03:15:05;;;;;;;27.77;7.68;;;;;;;;;;5053071;28;20044;-58
2022/01/06 03:17:30;;;;;;;25.25;7.53;;;;;;;;;;5050972;28;20039;-58
2022/01/06 03:19:55;;;;;;;18.10;6.00;;;;;;;;;;5010331;28;1143677;-58
2022/01/06 03:22:20;;;;;;;33.10;7.68;;;;;;;;;;5052154;28;20379;-59
2022/01/06 03:24:46;;;;;;;20.13;6.03;;;;;;;;;;5050373;28;20041;-58
2022/01/06 03:27:11;;;;;;;20.77;7.45;;;;;;;;;;5051734;28;20475;-59
2022/01/06 03:29:36;;;;;;;17.40;4.97;;;;;;;;;;5064556;28;20040;-60
2022/01/06 03:32:02;;;;;;;21.17;7.10;;;;;;;;;;5071708;28;20028;-59
2022/01/06 03:34:30;;;;;;;30.92;6.72;;;;;;;;;;5070230;28;20482;-59
2022/01/06 03:36:55;;;;;;;20.70;6.10;;;;;;;;;;5072050;28;20016;-59
2022/01/06 03:39:20;;;;;;;24.63;7.30;;;;;;;;;;5070512;28;20090;-59
2022/01/06 03:41:46;;;;;;;41.70;7.87;;;;;;;;;;5071311;28;20059;-59
2022/01/06 03:44:12;;;;;;;38.53;9.98;;;;;;;;;;5069598;28;20040;-59
2022/01/06 03:46:37;;;;;;;20.77;6.72;;;;;;;;;;5056692;28;20025;-59
2022/01/06 03:49:02;;;;;;;24.75;6.15;;;;;;;;;;5050029;28;20048;-59
2022/01/06 03:51:27;;;;;;;26.05;6.80;;;;;;;;;;5051590;28;20421;-58
2022/01/06 03:53:52;;;;;;;14.10;7.38;;;;;;;;;;5050004;28;20017;-57
2022/01/06 03:56:18;;;;;;;36.10;9.47;;;;;;;;;;5052196;28;20005;-58
2022/01/06 03:58:44;;;;;;;23.00;6.15;;;;;;;;;;5049788;28;20527;-57
2022/01/06 04:01:09;;;;;;;33.60;6.93;;;;;;;;;;5051662;28;20096;-57
2022/01/06 04:03:34;;;;;;;12.00;4.68;;;;;;;;;;5050457;28;20108;-58
2022/01/06 04:06:00;;;;;;;44.47;7.93;;;;;;;;;;5049966;28;20048;-58
2022/01/06 04:08:25;;;;;;;29.48;8.18;;;;;;;;;;5051658;28;20036;-58
2022/01/06 04:10:50;;;;;;;21.53;6.27;;;;;;;;;;5049225;28;20060;-57
2022/01/06 04:13:15;;;;;;;23.85;6.68;;;;;;;;;;5061420;28;20430;-57
2022/01/06 04:15:40;;;;;;;20.90;6.93;;;;;;;;;;5069516;28;20533;-57
2022/01/06 04:18:05;;;;;;;20.80;5.90;;;;;;;;;;5070571;28;20414;-56
2022/01/06 04:20:31;;;;;;;14.67;5.97;;;;;;;;;;5069309;28;20510;-57
2022/01/06 04:22:56;;;;;;;27.33;6.88;;;;;;;;;;5070608;28;20411;-57
2022/01/06 04:25:21;;;;;;;16.27;6.20;;;;;;;;;;5069147;28;20098;-58
2022/01/06 04:27:46;;;;;;;16.17;5.10;;;;;;;;;;5051214;28;20439;-57
2022/01/06 04:30:11;;;;;;;22.97;8.03;;;;;;;;;;5049485;28;20041;-57
2022/01/06 04:32:37;;;;;;;27.70;7.07;;;;;;;;;;5051482;28;20469;-58
2022/01/06 04:35:03;;;;;;;23.10;6.63;;;;;;;;;;5060953;28;20081;-58
2022/01/06 04:37:28;;;;;;;20.92;6.15;;;;;;;;;;5050796;28;20032;-58
2022/01/06 04:39:54;;;;;;;25.38;5.80;;;;;;;;;;5049438;28;20029;-57
2022/01/06 04:42:19;;;;;;;13.45;7.00;;;;;;;;;;5050358;28;20464;-57
2022/01/06 04:44:44;;;;;;;25.13;7.85;;;;;;;;;;5048714;28;20515;-58
2022/01/06 04:47:09;;;;;;;24.17;6.60;;;;;;;;;;5050706;28;20028;-57
2022/01/06 04:49:34;;;;;;;25.60;5.72;;;;;;;;;;5048968;28;20061;-57
2022/01/06 04:52:01;;;;;;;15.73;4.57;;;;;;;;;;5050596;28;20102;-58
2022/01/06 04:54:26;;;;;;;20.95;6.22;;;;;;;;;;5049167;28;20447;-57
2022/01/06 04:56:51;;;;;;;18.67;5.07;;;;;;;;;;5066800;28;20039;-58
2022/01/06 04:59:16;;;;;;;27.38;6.30;;;;;;;;;;5069281;28;20037;-58
2022/01/06 05:01:41;;;;;;;28.67;5.50;;;;;;;;;;5068508;28;20016;-58
2022/01/06 05:04:06;;;;;;;26.57;7.20;;;;;;;;;;5068525;28;20469;-58
2022/01/06 05:06:32;;;;;;;43.70;6.93;;;;;;;;;;5065687;28;20435;-57
2022/01/06 05:08:57;;;;;;;22.42;7.75;;;;;;;;;;5049108;28;20040;-58
2022/01/06 05:11:22;;;;;;;25.67;6.72;;;;;;;;;;5049992;28;20020;-58
2022/01/06 05:13:48;;;;;;;33.08;6.63;;;;;;;;;;5055266;28;20477;-58
2022/01/06 05:16:13;;;;;;;25.17;5.63;;;;;;;;;;5070312;28;20024;-55
2022/01/06 05:18:38;;;;;;;30.42;9.40;;;;;;;;;;5069549;28;20044;-58
2022/01/06 05:21:07;;;;;;;34.85;7.22;;;;;;;;;;5068916;28;20169;-57
2022/01/06 05:23:32;;;;;;;12.82;5.15;;;;;;;;;;5062578;28;20024;-58
2022/01/06 05:25:58;;;;;;;21.65;5.80;;;;;;;;;;5048581;28;20029;-58
2022/01/06 05:28:23;;;;;;;24.08;6.03;;;;;;;;;;5049826;28;20116;-57
2022/01/06 05:30:48;;;;;;;20.60;6.10;;;;;;;;;;5048509;28;20044;-57
2022/01/06 05:33:13;;;;;;;29.35;6.47;;;;;;;;;;5052010;28;20490;-57
2022/01/06 05:35:38;;;;;;;18.58;5.65;;;;;;;;;;5068325;28;20407;-58
2022/01/06 05:38:04;;;;;;;27.58;7.60;;;;;;;;;;5070154;28;20456;-57
2022/01/06 05:40:29;;;;;;;19.42;5.82;;;;;;;;;;5068239;28;20037;-58
2022/01/06 05:42:56;;;;;;;20.03;6.53;;;;;;;;;;5056858;28;20020;-57
2022/01/06 05:45:22;;;;;;;31.15;9.75;;;;;;;;;;5052241;28;20463;-56
2022/01/06 05:47:47;;;;;;;19.50;6.10;;;;;;;;;;5049733;28;20108;-57
2022/01/06 05:50:12;;;;;;;21.90;6.53;;;;;;;;;;5048759;28;20491;-56
2022/01/06 05:52:37;;;;;;;24.63;6.27;;;;;;;;;;5049689;28;20025;-56
2022/01/06 05:55:03;;;;;;;22.88;7.70;;;;;;;;;;5048446;28;20459;-56
2022/01/06 05:57:28;;;;;;;35.80;7.75;;;;;;;;;;5049655;28;20092;-57
2022/01/06 05:59:53;;;;;;;25.48;5.72;;;;;;;;;;5048510;28;20400;-57
2022/01/06 06:02:19;;;;;;;24.20;7.03;;;;;;;;;;5049548;28;20598;-57
2022/01/06 06:04:45;;;;;;;29.13;6.23;;;;;;;;;;5048135;28;20060;-57
2022/01/06 06:07:11;;;;;;;15.80;5.63;;;;;;;;;;5050826;28;20439;-57
2022/01/06 06:09:36;;;;;;;9.77;5.53;;;;;;;;;;5051723;28;20033;-57
2022/01/06 06:12:01;;;;;;;33.75;6.35;;;;;;;;;;5053552;28;20013;-57
2022/01/06 06:14:26;;;;;;;37.10;5.60;;;;;;;;;;5051893;28;20405;-57
2022/01/06 06:16:51;;;;;;;23.20;8.37;;;;;;;;;;5052889;28;20529;-57
2022/01/06 06:19:16;;;;;;;18.30;6.55;;;;;;;;;;5051861;28;20463;-57
2022/01/06 06:21:41;;;;;;;30.23;8.52;;;;;;;;;;5053425;28;20027;-57
2022/01/06 06:24:07;;;;;;;63.38;9.48;;;;;;;;;;5051264;28;20625;-57
2022/01/06 06:26:32;;;;;;;27.85;7.00;;;;;;;;;;5052910;28;20020;-57
2022/01/06 06:28:57;;;;;;;123.10;12.60;;;;;;;;;;5051892;28;20095;-57
2022/01/06 06:31:22;;;;;;;64.20;7.80;;;;;;;;;;5052889;28;20787;-57
2022/01/06 06:33:47;;;;;;;43.28;6.55;;;;;;;;;;5051454;28;20060;-57
2022/01/06 06:36:13;;;;;;;27.57;8.33;;;;;;;;;;5051818;28;20113;-57
2022/01/06 06:38:38;;;;;;;32.90;8.90;;;;;;;;;;5052637;28;20567;-58
2022/01/06 06:41:03;;;;;;;32.50;6.53;;;;;;;;;;5051571;28;20630;-57
2022/01/06 06:43:28;;;;;;;19.67;5.07;;;;;;;;;;5052429;28;20546;-58
2022/01/06 06:45:53;;;;;;;18.05;6.97;;;;;;;;;;5051117;28;20033;-58
2022/01/06 06:48:19;;;;;;;17.30;5.45;;;;;;;;;;5052987;28;20014;-58
2022/01/06 06:50:44;;;;;;;20.10;5.93;;;;;;;;;;5051163;28;20032;-58
2022/01/06 06:53:09;;;;;;;18.48;7.80;;;;;;;;;;5052903;28;20442;-58
2022/01/06 06:55:34;;;;;;;20.67;5.97;;;;;;;;;;5050655;28;20033;-58
2022/01/06 06:57:59;;;;;;;9.10;5.05;;;;;;;;;;5052871;28;20987;-58
2022/01/06 07:00:24;;;;;;;11.50;5.90;;;;;;;;;;5051382;28;20507;-58
2022/01/06 07:02:50;;;;;;;17.63;6.57;;;;;;;;;;5051886;28;20071;-58
2022/01/06 07:05:15;;;;;;;21.15;7.22;;;;;;;;;;5051071;28;20550;-57
2022/01/06 07:07:41;;;;;;;24.88;8.15;;;;;;;;;;5052578;28;20017;-58
2022/01/06 07:10:06;;;;;;;24.85;6.38;;;;;;;;;;5050723;28;20464;-58
2022/01/06 07:12:31;;;;;;;25.95;6.70;;;;;;;;;;5052096;28;20025;-55
2022/01/06 07:14:57;;;;;;;25.60;7.20;;;;;;;;;;5051144;28;20043;-55
2022/01/06 07:17:22;;;;;;;25.45;5.90;;;;;;;;;;5051880;28;20051;-56
2022/01/06 07:19:47;;;;;;;25.90;6.68;;;;;;;;;;5049384;28;20056;-55
2022/01/06 07:22:13;;;;;;;33.72;7.78;;;;;;;;;;5052207;28;20698;-55
2022/01/06 07:24:39;;;;;;;87.43;11.77;;;;;;;;;;5048601;28;20137;-55
2022/01/06 07:27:04;;;;;;;20.25;6.00;;;;;;;;;;5052309;28;20443;-55
2022/01/06 07:29:29;;;;;;;47.57;8.50;;;;;;;;;;5050561;28;20040;-55
2022/01/06 07:31:54;;;;;;;11.57;6.80;;;;;;;;;;5051710;28;20490;-55
2022/01/06 07:34:19;;;;;;;37.17;9.57;;;;;;;;;;5050569;28;20497;-55
2022/01/06 07:36:44;;;;;;;39.70;7.53;;;;;;;;;;5051732;28;20100;-55
2022/01/06 07:39:10;;;;;;;8.18;5.95;;;;;;;;;;5050185;28;20529;-55
2022/01/06 07:41:35;;;;;;;16.58;7.07;;;;;;;;;;5051690;28;20150;-55
2022/01/06 07:44:00;;;;;;;33.30;8.60;;;;;;;;;;5050054;28;20124;-55
2022/01/06 07:46:25;;;;;;;18.75;6.03;;;;;;;;;;5051533;28;20412;-55
2022/01/06 07:48:57;;;;;;;22.63;8.93;;;;;;;;;;5050241;28;20025;-55
2022/01/06 07:51:23;;;;;;;29.42;7.53;;;;;;;;;;5051466;28;20021;-55
2022/01/06 07:53:48;;;;;;;23.60;6.57;;;;;;;;;;5049742;28;20047;-55
2022/01/06 07:56:14;;;;;;;126.72;20.70;;;;;;;;;;5051425;28;20005;-55
2022/01/06 07:58:39;;;;;;;10.07;7.13;;;;;;;;;;5051586;28;20099;-55
2022/01/06 08:01:04;;;;;;;32.03;8.63;;;;;;;;;;5049094;28;20811;-55
2022/01/06 08:03:29;;;;;;;31.70;7.28;;;;;;;;;;5051126;28;20467;-55
2022/01/06 08:05:54;;;;;;;20.10;9.20;;;;;;;;;;5049999;28;20090;-55
2022/01/06 08:08:19;;;;;;;27.27;7.33;;;;;;;;;;5050810;28;20791;-57
2022/01/06 08:10:45;;;;;;;30.98;7.60;;;;;;;;;;5049510;28;20451;-55
2022/01/06 08:13:10;;;;;;;27.83;10.80;;;;;;;;;;5051462;28;20017;-56
2022/01/06 08:15:35;;;;;;;30.90;8.57;;;;;;;;;;5045033;28;20101;-55
2022/01/06 08:18:00;;;;;;;26.47;8.60;;;;;;;;;;5050913;28;20442;-54
2022/01/06 08:20:26;;;;;;;29.92;6.90;;;;;;;;;;5049274;28;20456;-55
2022/01/06 08:22:51;;;;;;;30.98;7.32;;;;;;;;;;5050450;28;20025;-55
2022/01/06 08:25:16;;;;;;;17.10;7.07;;;;;;;;;;5049280;28;20037;-55
2022/01/06 08:27:41;;;;;;;27.13;8.27;;;;;;;;;;5050198;28;20027;-55
2022/01/06 08:30:07;;;;;;;20.13;9.10;;;;;;;;;;5048739;28;20450;-55
2022/01/06 08:32:32;;;;;;;30.55;10.90;;;;;;;;;;5050620;28;20366;-55
2022/01/06 08:34:57;;;;;;;23.38;11.20;;;;;;;;;;5049323;28;20037;-55
2022/01/06 08:37:23;;;;;;;20.13;9.97;;;;;;;;;;5050733;28;20032;-55
2022/01/06 08:39:48;;;;;;;34.00;11.53;;;;;;;;;;5049146;28;21013;-55
2022/01/06 08:42:13;;;;;;;35.63;10.15;;;;;;;;;;5050671;28;20415;-55
2022/01/06 08:44:39;;;;;;;22.75;9.52;;;;;;;;;;5047787;28;20044;-55
2022/01/06 08:47:05;;;;;;;39.70;12.75;;;;;;;;;;5050675;28;20074;-55
2022/01/06 08:49:31;;;;;;;32.03;10.30;;;;;;;;;;5048941;28;20036;-55
2022/01/06 08:51:56;;;;;;;20.95;8.23;;;;;;;;;;5049316;28;20059;-54
2022/01/06 08:54:21;;;;;;;23.97;9.80;;;;;;;;;;5051205;28;21556;-55
2022/01/06 08:56:46;;;;;;;19.55;8.32;;;;;;;;;;5070324;28;20468;-55
2022/01/06 08:59:11;;;;;;;20.30;6.23;;;;;;;;;;5049873;28;20044;-55
2022/01/06 09:01:37;;;;;;;38.67;8.05;;;;;;;;;;5050393;28;20103;-55
2022/01/06 09:04:02;;;;;;;19.90;6.95;;;;;;;;;;5048853;28;20091;-55
2022/01/06 09:06:27;;;;;;;23.92;8.23;;;;;;;;;;5049786;28;20108;-55
2022/01/06 09:08:53;;;;;;;34.40;7.90;;;;;;;;;;5049035;28;20764;-55
2022/01/06 09:11:18;;;;;;;18.17;7.93;;;;;;;;;;5050006;28;20419;-55
2022/01/06 09:13:43;;;;;;;26.67;6.97;;;;;;;;;;5048562;28;20100;-55
2022/01/06 09:16:09;;;;;;;29.80;10.18;;;;;;;;;;5050167;28;20016;-55
2022/01/06 09:18:34;;;;;;;34.70;7.80;;;;;;;;;;5050178;28;20045;-55
2022/01/06 09:20:59;;;;;;;20.20;9.63;;;;;;;;;;5048622;28;20029;-55
2022/01/06 09:23:25;;;;;;;25.95;9.75;;;;;;;;;;5049750;28;20017;-55
2022/01/06 09:25:50;;;;;;;17.42;5.70;;;;;;;;;;5048514;28;20494;-55
2022/01/06 09:28:15;;;;;;;48.47;9.73;;;;;;;;;;5049743;28;20021;-55
2022/01/06 09:30:40;;;;;;;17.42;6.70;;;;;;;;;;5048227;28;20082;-55
2022/01/06 09:33:05;;;;;;;15.80;6.20;;;;;;;;;;5050205;28;20298;-55
2022/01/06 09:35:30;;;;;;;20.20;8.13;;;;;;;;;;5048504;28;20593;-55
2022/01/06 09:37:56;;;;;;;19.37;6.20;;;;;;;;;;5049693;28;20415;-55
2022/01/06 09:40:21;;;;;;;12.90;5.45;;;;;;;;;;5048730;28;20432;-55
2022/01/06 09:42:46;;;;;;;15.60;8.82;;;;;;;;;;5051519;28;20091;-55
2022/01/06 09:45:12;;;;;;;26.40;7.97;;;;;;;;;;5052003;28;20075;-55
2022/01/06 09:47:37;;;;;;;22.65;4.93;;;;;;;;;;5053434;28;20025;-55
2022/01/06 09:50:03;;;;;;;22.80;6.72;;;;;;;;;;5040405;28;20045;-55
2022/01/06 09:52:28;;;;;;;22.55;7.78;;;;;;;;;;5033363;28;20384;-55
2022/01/06 09:54:53;;;;;;;26.47;8.10;;;;;;;;;;5051255;28;20048;-55
2022/01/06 09:57:19;;;;;;;15.30;5.43;;;;;;;;;;5053928;28;20028;-55
2022/01/06 09:59:44;;;;;;;22.00;8.45;;;;;;;;;;5051828;28;20033;-55
2022/01/06 10:02:16;;;;;;;20.23;6.40;;;;;;;;;;5053984;28;20017;-55
2022/01/06 10:04:42;;;;;;;23.88;7.10;;;;;;;;;;5048224;28;20887;-55
2022/01/06 10:07:08;;;;;;;23.02;7.75;;;;;;;;;;5051604;28;20017;-55
2022/01/06 10:09:34;;;;;;;15.05;5.40;;;;;;;;;;5053134;28;20040;-55
2022/01/06 10:12:00;;;;;;;21.88;5.95;;;;;;;;;;5061071;28;20013;-55
2022/01/06 10:14:38;;;;;;;20.50;5.72;;;;;;;;;;5051587;28;20086;-54
2022/01/06 10:17:04;;;;;;;17.50;5.87;;;;;;;;;;5053157;28;20384;-55
2022/01/06 10:19:29;;;;;;;16.65;5.22;;;;;;;;;;5051478;28;20048;-54
2022/01/06 10:21:57;;;;;;;21.60;10.00;;;;;;;;;;5053004;28;20028;-55
2022/01/06 10:24:24;;;;;;;27.17;10.07;;;;;;;;;;5050483;28;20089;-55
2022/01/06 10:27:01;;;;;;;18.08;6.28;;;;;;;;;;5053003;28;20500;-55
2022/01/06 10:29:30;;;;;;;13.68;6.13;;;;;;;;;;5051092;28;20037;-55
2022/01/06 10:32:03;;;;;;;21.60;5.43;;;;;;;;;;5051808;28;20029;-55
2022/01/06 10:34:29;;;;;;;14.18;5.38;;;;;;;;;;5047720;28;20047;-55
2022/01/06 10:36:54;;;;;;;23.33;8.02;;;;;;;;;;5051605;28;20464;-54
2022/01/06 10:39:19;;;;;;;23.90;6.20;;;;;;;;;;5050432;28;20510;-54
2022/01/06 10:41:44;;;;;;;25.05;5.70;;;;;;;;;;5051552;28;20021;-55
2022/01/06 10:44:10;;;;;;;12.65;5.70;;;;;;;;;;5049921;28;20053;-54
2022/01/06 10:46:36;;;;;;;22.00;6.70;;;;;;;;;;5052173;28;20036;-55
2022/01/06 10:49:04;;;;;;;28.10;7.83;;;;;;;;;;5051000;28;21648;-55
2022/01/06 10:51:48;;;;;;;16.42;5.03;;;;;;;;;;5049656;28;20554;-55
2022/01/06 10:54:14;;;;;;;17.98;6.32;;;;;;;;;;5048970;28;20075;-55
2022/01/06 10:56:39;;;;;;;21.17;6.50;;;;;;;;;;5052519;28;20495;-55
2022/01/06 10:59:04;;;;;;;14.55;5.88;;;;;;;;;;5051080;28;20052;-55
2022/01/06 11:01:33;;;;;;;20.80;5.93;;;;;;;;;;5052560;28;20036;-55
2022/01/06 11:03:58;;;;;;;20.48;5.10;;;;;;;;;;5050831;28;20506;-55
2022/01/06 11:06:23;;;;;;;25.80;5.80;;;;;;;;;;5049851;28;20484;-55
2022/01/06 11:08:51;;;;;;;25.90;8.48;;;;;;;;;;5049193;28;20446;-54
2022/01/06 11:11:30;;;;;;;29.67;9.02;;;;;;;;;;5062426;28;20490;-55
2022/01/06 11:13:55;;;;;;;;;;;;;;;;;;5054041;28;20037;-55
2022/01/06 11:16:20;;;;;;;24.33;7.13;;;;;;;;;;5055574;28;19905;-55
2022/01/06 11:18:56;;;;;;;13.02;5.55;;;;;;;;;;5051347;28;20784;-55
2022/01/06 11:21:24;;;;;;;14.35;5.00;;;;;;;;;;5059986;28;20055;-55
2022/01/06 11:23:59;;;;;;;23.13;8.48;;;;;;;;;;5055116;28;20074;-55
2022/01/06 11:26:24;;;;;;;34.05;8.07;;;;;;;;;;5071733;28;20462;-54
2022/01/06 11:28:54;;;;;;;24.50;7.10;;;;;;;;;;5050692;28;20020;-55
2022/01/06 11:31:21;;;;;;;21.35;6.03;;;;;;;;;;5053410;28;20475;-55
2022/01/06 11:33:47;;;;;;;21.33;7.05;;;;;;;;;;5061226;28;20029;-54
2022/01/06 11:36:24;;;;;;;22.73;5.90;;;;;;;;;;5071850;28;20099;-55
2022/01/06 11:38:50;;;;;;;24.65;5.75;;;;;;;;;;5069901;28;20038;-54
2022/01/06 11:41:16;;;;;;;22.33;5.75;;;;;;;;;;5070392;28;20535;-54
2022/01/06 11:43:42;;;;;;;13.18;7.75;;;;;;;;;;5057884;28;20067;-54
2022/01/06 11:46:07;;;;;;;27.05;11.90;;;;;;;;;;5051694;28;20092;-55
2022/01/06 11:48:43;;;;;;;16.35;7.13;;;;;;;;;;5051479;28;20100;-55
2022/01/06 11:51:08;;;;;;;33.20;8.80;;;;;;;;;;5050093;28;20119;-54
2022/01/06 11:53:34;;;;;;;16.33;6.38;;;;;;;;;;5051375;28;20016;-55
2022/01/06 11:56:00;;;;;;;24.13;7.20;;;;;;;;;;5050167;28;20090;-55
2022/01/06 11:58:26;;;;;;;19.25;8.13;;;;;;;;;;5051217;28;20009;-55
2022/01/06 12:01:12;;;;;;;20.13;8.02;;;;;;;;;;5049818;28;20029;-55
2022/01/06 12:03:38;;;;;;;20.63;7.60;;;;;;;;;;5051091;28;20041;-55
2022/01/06 12:06:03;;;;;;;21.88;7.03;;;;;;;;;;5049014;28;20048;-55
2022/01/06 12:08:40;;;;;;;24.95;7.68;;;;;;;;;;5051318;28;20013;-55
2022/01/06 12:11:05;;;;;;;23.23;9.45;;;;;;;;;;5049885;28;20029;-54
2022/01/06 12:13:41;;;;;;;21.10;5.68;;;;;;;;;;5050959;28;20020;-55
2022/01/06 12:16:06;;;;;;;21.70;6.18;;;;;;;;;;5049888;28;20033;-54
2022/01/06 12:18:32;;;;;;;16.77;8.40;;;;;;;;;;5050498;28;20110;-54
2022/01/06 12:20:58;;;;;;;26.75;8.98;;;;;;;;;;5049538;28;20044;-55
2022/01/06 12:23:23;;;;;;;23.77;7.72;;;;;;;;;;5051062;28;20060;-54
2022/01/06 12:25:56;;;;;;;23.70;5.65;;;;;;;;;;5049432;28;20510;-54
2022/01/06 12:28:22;;;;;;;24.58;8.32;;;;;;;;;;5050979;28;20055;-55
2022/01/06 12:30:47;;;;;;;28.85;8.50;;;;;;;;;;5049188;28;20435;-55
2022/01/06 12:33:14;;;;;;;19.15;6.25;;;;;;;;;;5051101;28;20039;-54
2022/01/06 12:35:44;;;;;;;19.13;5.60;;;;;;;;;;5049014;28;20051;-55
2022/01/06 12:38:10;;;;;;;18.38;6.35;;;;;;;;;;5048722;28;20025;-54
2022/01/06 12:40:36;;;;;;;17.42;6.13;;;;;;;;;;5047240;28;20096;-54
2022/01/06 12:43:14;;;;;;;21.92;7.85;;;;;;;;;;5050120;28;20388;-55
2022/01/06 12:45:40;;;;;;;13.23;5.97;;;;;;;;;;5048044;28;20040;-55
2022/01/06 12:48:05;;;;;;;21.38;6.82;;;;;;;;;;5050686;28;20536;-55
2022/01/06 12:50:47;;;;;;;28.97;7.17;;;;;;;;;;5048581;28;20472;-55
2022/01/06 12:53:23;;;;;;;20.42;6.82;;;;;;;;;;5050453;28;20477;-54
2022/01/06 12:55:48;;;;;;;13.00;5.15;;;;;;;;;;5048757;28;20545;-55
2022/01/06 12:58:22;;;;;;;17.23;5.93;;;;;;;;;;5050299;28;20361;-55
2022/01/06 13:00:54;;;;;;;21.40;6.72;;;;;;;;;;5048222;28;20981;-55
2022/01/06 13:03:26;;;;;;;17.40;5.82;;;;;;;;;;5050286;28;20036;-55
2022/01/06 13:05:51;;;;;;;19.30;10.00;;;;;;;;;;5047975;28;20182;-55
2022/01/06 13:08:16;;;;;;;30.00;9.13;;;;;;;;;;5049906;28;20017;-55
2022/01/06 13:10:41;;;;;;;37.15;7.35;;;;;;;;;;5047911;28;20427;-54
2022/01/06 13:13:06;;;;;;;33.38;9.13;;;;;;;;;;5049796;28;20067;-55
2022/01/06 13:15:34;;;;;;;25.83;7.27;;;;;;;;;;5048216;28;20040;-54
2022/01/06 13:18:00;;;;;;;22.88;8.95;;;;;;;;;;5053915;28;20514;-54
2022/01/06 13:20:25;;;;;;;27.13;7.35;;;;;;;;;;5051802;28;20678;-55
2022/01/06 13:25:21;;;;;;;28.83;9.05;;;;;;;;;;5052699;28;20484;-55
2022/01/06 13:27:52;;;;;;;20.73;9.17;;;;;;;;;;5054052;28;20025;-55
2022/01/06 13:30:28;;;;;;;22.77;7.93;;;;;;;;;;5052874;28;20477;-55
2022/01/06 13:32:56;;;;;;;17.23;5.97;;;;;;;;;;5053391;28;20035;-54
2022/01/06 13:35:21;;;;;;;32.92;9.45;;;;;;;;;;5052905;28;20044;-54
2022/01/06 13:37:46;;;;;;;24.90;7.60;;;;;;;;;;5054210;28;20100;-54
2022/01/06 13:40:12;;;;;;;20.70;9.07;;;;;;;;;;5044248;28;20436;-54
2022/01/06 13:42:38;;;;;;;16.40;6.32;;;;;;;;;;5032693;28;20100;-54
2022/01/06 13:45:17;;;;;;;21.77;10.35;;;;;;;;;;5032492;28;20037;-54
2022/01/06 13:48:20;;;;;;;17.48;7.78;;;;;;;;;;5033589;28;20033;-54
2022/01/06 13:53:30;;;;;;;24.77;7.63;;;;;;;;;;5033648;28;20087;-54
2022/01/06 13:56:01;;;;;;;18.88;5.95;;;;;;;;;;5031713;28;20350;-54
2022/01/06 13:58:27;;;;;;;26.45;9.02;;;;;;;;;;5033922;28;20026;-54
2022/01/06 14:00:53;;;;;;;16.77;5.97;;;;;;;;;;5032207;28;20374;-54
2022/01/06 14:03:18;;;;;;;23.58;6.28;;;;;;;;;;5033251;28;20029;-54
2022/01/06 14:05:43;;;;;;;18.23;9.57;;;;;;;;;;5031853;28;20041;-54
2022/01/06 14:08:09;;;;;;;18.70;5.95;;;;;;;;;;5033471;28;20029;-54
2022/01/06 14:10:34;;;;;;;18.63;7.07;;;;;;;;;;5031576;28;20030;-54
2022/01/06 14:12:59;;;;;;;21.98;8.18;;;;;;;;;;5033500;28;20017;-54
2022/01/06 14:15:24;;;;;;;22.63;6.18;;;;;;;;;;5032170;28;20447;-54
2022/01/06 14:17:49;;;;;;;20.23;6.33;;;;;;;;;;5033081;28;20411;-54
2022/01/06 14:20:14;;;;;;;29.75;9.27;;;;;;;;;;5031899;28;20057;-54
2022/01/06 14:22:39;;;;;;;26.53;7.43;;;;;;;;;;5032925;28;20049;-54
2022/01/06 14:25:05;;;;;;;15.15;5.60;;;;;;;;;;5035651;28;20498;-54
2022/01/06 14:27:30;;;;;;;26.08;8.15;;;;;;;;;;5052602;28;20104;-54
2022/01/06 14:29:55;;;;;;;31.40;8.87;;;;;;;;;;5051479;28;20546;-54
2022/01/06 14:32:20;;;;;;;25.75;5.82;;;;;;;;;;5052716;28;20455;-54
2022/01/06 14:34:45;;;;;;;23.50;8.02;;;;;;;;;;5051566;28;20033;-54